Clarkston, Georgia
Current Conditions -  °F | °C
As of 8:53 PM on Thursday 20 Nov 2014 (Local Time) from KPDK Reporting Station
Clear Clear  
Wind Chill: 40°   Ceiling: Unl
Heat Index: 40°   Visibility: 10mi
Dew Point: 31°   Wind: 0mph
Humidity: 70%   Direction: NA
Pressure: 30.23"   Gusts: NA
Location:  33.81°N, 84.24°W
Report Text: KPDK 210153Z 00000KT 10SM CLR 04/M01 A3023 RMK AO2 SLP249 T00441006
Loading
Personal Weather Stations






























Interactive Weather Map New forecast layout! Learn more

10-Day Weather Forecast

Advertisements
Track Severe Weather on mobile